Time;durP1;ratioP1;P1;durP2;ratioP2;P2;SDS_P1;SDS_P2;PMS_P1;PMS_P2;Temp;Humidity;BMP_temperature;BMP_pressure;BME280_temperature;BME280_humidity;BME280_pressure;Samples;Min_cycle;Max_cycle;Signal;HPM_P1;HPM_P2
2023/04/23 00:01:16;;;;;;;9.48;8.57;;;;;;;;;;5024482;28;20790;-52
2023/04/23 00:03:44;;;;;;;8.27;7.47;;;;;;;;;;5029108;28;20315;-51
2023/04/23 00:06:11;;;;;;;8.48;7.68;;;;;;;;;;5044563;28;20234;-52
2023/04/23 00:08:39;;;;;;;9.35;8.07;;;;;;;;;;5044656;28;20267;-52
2023/04/23 00:11:06;;;;;;;10.88;8.15;;;;;;;;;;5045330;28;20240;-52
2023/04/23 00:13:35;;;;;;;8.55;7.05;;;;;;;;;;5044579;28;20236;-51
2023/04/23 00:16:02;;;;;;;8.60;7.65;;;;;;;;;;5045598;28;20331;-51
2023/04/23 00:18:29;;;;;;;9.18;8.30;;;;;;;;;;5036227;28;20694;-50
2023/04/23 00:20:56;;;;;;;14.57;8.70;;;;;;;;;;5045265;28;20975;-50
2023/04/23 00:23:22;;;;;;;9.93;8.55;;;;;;;;;;5045377;28;20239;-51
2023/04/23 00:25:49;;;;;;;10.27;7.88;;;;;;;;;;5044279;28;20230;-51
2023/04/23 00:28:16;;;;;;;8.48;7.68;;;;;;;;;;5043659;28;20238;-52
2023/04/23 00:30:44;;;;;;;9.70;7.95;;;;;;;;;;5044609;28;20231;-52
2023/04/23 00:33:11;;;;;;;9.68;8.68;;;;;;;;;;5044753;28;20259;-51
2023/04/23 00:35:38;;;;;;;8.82;7.93;;;;;;;;;;5043187;28;20977;-50
2023/04/23 00:38:04;;;;;;;8.93;8.02;;;;;;;;;;5043243;28;20235;-51
2023/04/23 00:40:31;;;;;;;8.13;7.32;;;;;;;;;;5043854;28;20745;-50
2023/04/23 00:42:58;;;;;;;8.25;7.45;;;;;;;;;;5044040;28;20756;-52
2023/04/23 00:45:25;;;;;;;8.88;8.07;;;;;;;;;;5044739;28;20613;-50
2023/04/23 00:47:53;;;;;;;10.32;7.97;;;;;;;;;;5044017;28;20235;-52
2023/04/23 00:50:20;;;;;;;8.77;7.88;;;;;;;;;;5044496;28;20248;-53
2023/04/23 00:52:47;;;;;;;9.48;8.23;;;;;;;;;;5042087;28;20252;-51
2023/04/23 00:55:14;;;;;;;9.10;8.30;;;;;;;;;;5028788;28;20320;-52
2023/04/23 00:57:41;;;;;;;9.05;7.55;;;;;;;;;;5023628;28;20311;-54
2023/04/23 01:00:10;;;;;;;12.20;8.27;;;;;;;;;;5042990;28;20251;-50
2023/04/23 01:02:37;;;;;;;9.07;8.23;;;;;;;;;;5044097;28;20263;-50
2023/04/23 01:05:07;;;;;;;9.07;8.32;;;;;;;;;;5042915;28;20231;-51
2023/04/23 01:07:34;;;;;;;9.35;8.45;;;;;;;;;;5043235;28;20231;-51
2023/04/23 01:10:01;;;;;;;9.95;8.65;;;;;;;;;;5043600;28;20293;-52
2023/04/23 01:12:28;;;;;;;11.00;8.77;;;;;;;;;;5043472;28;20228;-50
2023/04/23 01:14:55;;;;;;;11.13;9.32;;;;;;;;;;5045512;28;20232;-53
2023/04/23 01:17:25;;;;;;;9.63;8.73;;;;;;;;;;5043996;28;20641;-51
2023/04/23 01:19:52;;;;;;;9.23;8.32;;;;;;;;;;5044856;28;20231;-51
2023/04/23 01:22:20;;;;;;;9.52;8.55;;;;;;;;;;5043650;28;20227;-51
2023/04/23 01:24:47;;;;;;;12.13;8.25;;;;;;;;;;5043845;28;20358;-51
2023/04/23 01:27:14;;;;;;;9.80;8.80;;;;;;;;;;5043226;28;20284;-51
2023/04/23 01:29:41;;;;;;;8.57;7.88;;;;;;;;;;5044335;28;20333;-52
2023/04/23 01:32:08;;;;;;;9.82;8.25;;;;;;;;;;5044548;28;20231;-52
2023/04/23 01:34:52;;;;;;;9.30;8.35;;;;;;;;;;5117101;27;20654;-50
2023/04/23 01:37:20;;;;;;;9.70;8.70;;;;;;;;;;5086672;28;20283;-52
2023/04/23 01:39:46;;;;;;;9.85;8.93;;;;;;;;;;5091205;28;20237;-52
2023/04/23 01:42:13;;;;;;;10.13;9.00;;;;;;;;;;5079793;28;20318;-52
2023/04/23 01:44:40;;;;;;;9.30;8.38;;;;;;;;;;5065608;28;20238;-52
2023/04/23 01:47:06;;;;;;;9.65;8.68;;;;;;;;;;5060988;28;20315;-51
2023/04/23 01:49:33;;;;;;;13.95;10.35;;;;;;;;;;5059845;28;20325;-51
2023/04/23 01:52:01;;;;;;;12.32;9.43;;;;;;;;;;5060371;28;20292;-51
2023/04/23 01:54:28;;;;;;;11.98;9.10;;;;;;;;;;5055631;28;20231;-51
2023/04/23 01:56:55;;;;;;;10.75;9.70;;;;;;;;;;5059260;28;20238;-51
2023/04/23 01:59:22;;;;;;;13.52;10.57;;;;;;;;;;5058074;28;20323;-51
2023/04/23 02:01:49;;;;;;;11.27;9.77;;;;;;;;;;5059700;28;20262;-51
2023/04/23 02:04:16;;;;;;;10.48;9.48;;;;;;;;;;5059966;28;20235;-51
2023/04/23 02:06:44;;;;;;;10.80;9.70;;;;;;;;;;5053001;28;20281;-51
2023/04/23 02:09:12;;;;;;;11.50;10.40;;;;;;;;;;5058098;28;20263;-50
2023/04/23 02:11:39;;;;;;;11.57;10.40;;;;;;;;;;5060427;28;20285;-53
2023/04/23 02:14:06;;;;;;;11.15;10.10;;;;;;;;;;5059454;28;20319;-51
2023/04/23 02:16:33;;;;;;;12.20;10.88;;;;;;;;;;5060109;28;21181;-52
2023/04/23 02:19:00;;;;;;;11.10;9.65;;;;;;;;;;5058431;28;20623;-50
2023/04/23 02:21:27;;;;;;;11.70;10.50;;;;;;;;;;5059528;28;20231;-52
2023/04/23 02:23:54;;;;;;;12.38;11.18;;;;;;;;;;5058983;28;20231;-52
2023/04/23 02:26:23;;;;;;;11.50;9.85;;;;;;;;;;5058987;28;20750;-52
2023/04/23 02:28:50;;;;;;;11.57;10.30;;;;;;;;;;5059094;28;20223;-52
2023/04/23 02:31:16;;;;;;;12.38;11.20;;;;;;;;;;5060182;28;20342;-58
2023/04/23 02:33:43;;;;;;;12.15;10.77;;;;;;;;;;5058459;28;20231;-52
2023/04/23 02:36:11;;;;;;;12.48;11.38;;;;;;;;;;5059158;28;20318;-50
2023/04/23 02:38:40;;;;;;;12.25;11.00;;;;;;;;;;5058897;28;20230;-51
2023/04/23 02:41:06;;;;;;;12.43;11.13;;;;;;;;;;5058504;28;20329;-51
2023/04/23 02:43:35;;;;;;;10.88;9.82;;;;;;;;;;5058112;28;20654;-51
2023/04/23 02:46:06;;;;;;;10.05;8.80;;;;;;;;;;5038437;28;20631;-58
2023/04/23 02:48:35;;;;;;;12.00;10.35;;;;;;;;;;5044880;28;20263;-50
2023/04/23 02:51:01;;;;;;;14.90;11.13;;;;;;;;;;5043328;28;20330;-51
2023/04/23 02:53:28;;;;;;;11.00;9.93;;;;;;;;;;5042732;28;20238;-51
2023/04/23 02:55:55;;;;;;;11.77;10.38;;;;;;;;;;5044955;28;20733;-51
2023/04/23 02:58:22;;;;;;;11.60;9.68;;;;;;;;;;5044194;28;20235;-51
2023/04/23 03:00:50;;;;;;;10.07;9.10;;;;;;;;;;5043602;28;20820;-51
2023/04/23 03:03:16;;;;;;;11.00;10.10;;;;;;;;;;5044737;28;20220;-52
2023/04/23 03:05:43;;;;;;;10.52;9.52;;;;;;;;;;5044783;28;20617;-51
2023/04/23 03:08:10;;;;;;;10.85;8.55;;;;;;;;;;5046075;28;20315;-51
2023/04/23 03:10:36;;;;;;;11.32;10.23;;;;;;;;;;5047678;28;20235;-51
2023/04/23 03:13:03;;;;;;;12.95;8.98;;;;;;;;;;5048324;28;20598;-51
2023/04/23 03:15:30;;;;;;;11.18;10.05;;;;;;;;;;5048633;28;20231;-50
2023/04/23 03:18:00;;;;;;;10.90;9.80;;;;;;;;;;5046590;28;20294;-53
2023/04/23 03:20:26;;;;;;;9.68;8.77;;;;;;;;;;5048516;28;20765;-54
2023/04/23 03:22:53;;;;;;;9.32;8.40;;;;;;;;;;5049685;28;20297;-56
2023/04/23 03:25:22;;;;;;;10.07;8.73;;;;;;;;;;5049222;28;20315;-51
2023/04/23 03:27:49;;;;;;;10.50;8.63;;;;;;;;;;5048255;28;20232;-56
2023/04/23 03:30:16;;;;;;;9.48;7.82;;;;;;;;;;5048081;28;20673;-52
2023/04/23 03:32:42;;;;;;;9.45;8.60;;;;;;;;;;5051795;28;20232;-51
2023/04/23 03:35:10;;;;;;;9.02;8.13;;;;;;;;;;5049733;28;20236;-51
2023/04/23 03:37:37;;;;;;;9.18;8.27;;;;;;;;;;5047712;28;20227;-52
2023/04/23 03:40:06;;;;;;;10.75;8.38;;;;;;;;;;5046859;28;20339;-53
2023/04/23 03:42:33;;;;;;;9.50;8.50;;;;;;;;;;5049766;28;20262;-50
2023/04/23 03:45:00;;;;;;;10.02;8.68;;;;;;;;;;5050922;28;20266;-51
2023/04/23 03:47:27;;;;;;;10.07;9.07;;;;;;;;;;5051144;28;20230;-53
2023/04/23 03:49:53;;;;;;;10.98;9.35;;;;;;;;;;5052454;28;20236;-54
2023/04/23 03:52:21;;;;;;;9.90;9.00;;;;;;;;;;5050580;28;20232;-56
2023/04/23 03:54:48;;;;;;;10.35;9.35;;;;;;;;;;5048706;28;20232;-51
2023/04/23 03:57:15;;;;;;;10.10;9.10;;;;;;;;;;5047241;28;20243;-53
2023/04/23 03:59:41;;;;;;;9.50;8.60;;;;;;;;;;5048444;28;20311;-53
2023/04/23 04:02:08;;;;;;;8.88;8.07;;;;;;;;;;5045792;28;20339;-52
2023/04/23 04:04:35;;;;;;;9.90;8.18;;;;;;;;;;5047576;28;20236;-51
2023/04/23 04:07:01;;;;;;;9.63;8.82;;;;;;;;;;5046446;28;20232;-52
2023/04/23 04:09:29;;;;;;;11.52;8.38;;;;;;;;;;5045789;28;20297;-52
2023/04/23 04:11:56;;;;;;;9.77;8.88;;;;;;;;;;5044729;28;20231;-52
2023/04/23 04:14:23;;;;;;;9.65;8.80;;;;;;;;;;5042323;28;20235;-51
2023/04/23 04:16:49;;;;;;;10.27;9.27;;;;;;;;;;5045203;28;20322;-58
2023/04/23 04:19:16;;;;;;;9.55;8.63;;;;;;;;;;5045196;28;20240;-54
2023/04/23 04:21:43;;;;;;;13.27;8.55;;;;;;;;;;5045675;28;20297;-53
2023/04/23 04:24:10;;;;;;;9.00;8.10;;;;;;;;;;5046232;28;20235;-51
2023/04/23 04:26:38;;;;;;;8.23;7.53;;;;;;;;;;5042981;28;20232;-52
2023/04/23 04:29:05;;;;;;;9.85;8.88;;;;;;;;;;5040054;28;20282;-51
2023/04/23 04:31:32;;;;;;;9.32;8.52;;;;;;;;;;5044216;28;20328;-51
2023/04/23 04:33:58;;;;;;;9.73;8.30;;;;;;;;;;5046131;28;20319;-52
2023/04/23 04:36:26;;;;;;;9.50;7.82;;;;;;;;;;5045506;28;20234;-52
2023/04/23 04:38:52;;;;;;;8.82;7.38;;;;;;;;;;5043281;28;20232;-51
2023/04/23 04:41:20;;;;;;;8.57;7.50;;;;;;;;;;5043140;28;20236;-54
2023/04/23 04:43:48;;;;;;;7.97;7.22;;;;;;;;;;5046491;28;20319;-52
2023/04/23 04:46:18;;;;;;;7.57;6.88;;;;;;;;;;5048887;28;20236;-51
2023/04/23 04:48:45;;;;;;;7.38;6.40;;;;;;;;;;5044730;28;20258;-51
2023/04/23 04:51:12;;;;;;;6.88;6.25;;;;;;;;;;5044637;28;20266;-53
2023/04/23 04:53:39;;;;;;;7.50;6.78;;;;;;;;;;5044693;28;20231;-52
2023/04/23 04:56:05;;;;;;;8.38;6.80;;;;;;;;;;5044217;28;20309;-50
2023/04/23 04:58:32;;;;;;;7.25;6.57;;;;;;;;;;5044681;28;20253;-55
2023/04/23 05:01:00;;;;;;;8.13;7.32;;;;;;;;;;5043294;28;20322;-50
2023/04/23 05:03:27;;;;;;;8.48;7.32;;;;;;;;;;5048427;28;20239;-52
2023/04/23 05:05:55;;;;;;;8.38;7.60;;;;;;;;;;5044348;28;20236;-50
2023/04/23 05:08:21;;;;;;;11.43;7.60;;;;;;;;;;5044357;28;20232;-52
2023/04/23 05:10:49;;;;;;;9.20;7.53;;;;;;;;;;5044827;28;20406;-51
2023/04/23 05:13:16;;;;;;;12.02;7.35;;;;;;;;;;5044738;28;20254;-52
2023/04/23 05:15:42;;;;;;;7.70;7.00;;;;;;;;;;5057570;28;20239;-52
2023/04/23 05:18:11;;;;;;;8.85;7.45;;;;;;;;;;5043974;28;20694;-50
2023/04/23 05:20:37;;;;;;;7.57;6.85;;;;;;;;;;5044973;28;20260;-51
2023/04/23 05:23:04;;;;;;;10.48;7.03;;;;;;;;;;5043603;28;20648;-52
2023/04/23 05:25:33;;;;;;;8.45;7.43;;;;;;;;;;5044334;28;20256;-51
2023/04/23 05:28:00;;;;;;;8.05;7.30;;;;;;;;;;5043993;28;20235;-52
2023/04/23 05:30:27;;;;;;;10.10;7.38;;;;;;;;;;5044241;28;20243;-52
2023/04/23 05:32:53;;;;;;;8.27;7.38;;;;;;;;;;5040409;28;20231;-51
2023/04/23 05:35:21;;;;;;;12.32;7.50;;;;;;;;;;5045009;28;20238;-51
2023/04/23 05:37:48;;;;;;;7.65;6.93;;;;;;;;;;5042389;28;20763;-52
2023/04/23 05:40:15;;;;;;;8.25;7.40;;;;;;;;;;5043828;28;20242;-52
2023/04/23 05:42:41;;;;;;;7.75;6.95;;;;;;;;;;5042555;28;20235;-52
2023/04/23 05:45:09;;;;;;;7.53;6.85;;;;;;;;;;5043515;28;20496;-51
2023/04/23 05:47:35;;;;;;;8.43;7.38;;;;;;;;;;5041141;28;20311;-52
2023/04/23 05:50:02;;;;;;;8.20;7.40;;;;;;;;;;5043610;28;20279;-52
2023/04/23 05:52:32;;;;;;;8.88;7.30;;;;;;;;;;5043058;28;20857;-49
2023/04/23 05:54:58;;;;;;;11.13;7.60;;;;;;;;;;5043039;28;20232;-50
2023/04/23 05:57:25;;;;;;;8.55;7.75;;;;;;;;;;5041458;28;20232;-52
2023/04/23 05:59:52;;;;;;;10.50;7.70;;;;;;;;;;5043204;28;20733;-51
2023/04/23 06:02:18;;;;;;;8.35;7.63;;;;;;;;;;5040435;28;20231;-51
2023/04/23 06:04:45;;;;;;;8.73;7.93;;;;;;;;;;5042152;28;20840;-51
2023/04/23 06:07:14;;;;;;;8.38;7.53;;;;;;;;;;5042855;28;20232;-52
2023/04/23 06:09:42;;;;;;;8.82;7.93;;;;;;;;;;5042477;28;20234;-51
2023/04/23 06:12:09;;;;;;;9.18;8.05;;;;;;;;;;5041503;28;20323;-51
2023/04/23 06:14:36;;;;;;;8.45;7.65;;;;;;;;;;5041907;28;20240;-54
2023/04/23 06:17:02;;;;;;;8.10;7.32;;;;;;;;;;5043566;28;20232;-51
2023/04/23 06:19:29;;;;;;;8.43;7.53;;;;;;;;;;5044228;28;20238;-51
2023/04/23 06:21:56;;;;;;;9.57;7.47;;;;;;;;;;5048430;28;20326;-50
2023/04/23 06:24:23;;;;;;;8.80;8.00;;;;;;;;;;5046481;28;20809;-51
2023/04/23 06:26:51;;;;;;;7.50;6.90;;;;;;;;;;5045977;28;20251;-51
2023/04/23 06:29:17;;;;;;;8.68;7.30;;;;;;;;;;5047487;28;20538;-51
2023/04/23 06:31:44;;;;;;;9.23;8.10;;;;;;;;;;5047715;28;20243;-51
2023/04/23 06:34:10;;;;;;;8.57;7.68;;;;;;;;;;5046919;28;20241;-50
2023/04/23 06:36:37;;;;;;;10.25;7.95;;;;;;;;;;5046710;28;20247;-51
2023/04/23 06:39:04;;;;;;;8.95;6.85;;;;;;;;;;5046382;28;20246;-53
2023/04/23 06:41:30;;;;;;;7.10;6.32;;;;;;;;;;5046570;28;20228;-51
2023/04/23 06:43:58;;;;;;;7.88;7.15;;;;;;;;;;5046632;28;20251;-51
2023/04/23 06:46:25;;;;;;;6.78;6.07;;;;;;;;;;5046570;28;20236;-51
2023/04/23 06:48:51;;;;;;;7.85;6.40;;;;;;;;;;5046203;28;20228;-52
2023/04/23 06:51:18;;;;;;;7.50;6.57;;;;;;;;;;5045282;28;20232;-53
2023/04/23 06:53:44;;;;;;;6.43;5.47;;;;;;;;;;5047234;28;20239;-52
2023/04/23 06:56:11;;;;;;;6.22;5.72;;;;;;;;;;5049772;28;20710;-52
2023/04/23 06:58:38;;;;;;;7.40;5.78;;;;;;;;;;5051849;28;20757;-52
2023/04/23 07:01:06;;;;;;;7.65;6.15;;;;;;;;;;5050577;28;20236;-51
2023/04/23 07:03:33;;;;;;;6.43;5.82;;;;;;;;;;5052502;28;20239;-51
2023/04/23 07:06:00;;;;;;;7.53;6.60;;;;;;;;;;5050167;28;20326;-50
2023/04/23 07:08:26;;;;;;;7.18;6.57;;;;;;;;;;5047771;28;20234;-51
2023/04/23 07:10:53;;;;;;;6.70;5.85;;;;;;;;;;5044788;28;20311;-51
2023/04/23 07:13:19;;;;;;;6.45;5.68;;;;;;;;;;5047012;28;20665;-55
2023/04/23 07:15:47;;;;;;;7.43;6.07;;;;;;;;;;5046442;28;20236;-52
2023/04/23 07:18:16;;;;;;;8.63;7.65;;;;;;;;;;5045879;28;20286;-52
2023/04/23 07:20:43;;;;;;;7.47;6.75;;;;;;;;;;5041715;28;20236;-51
2023/04/23 07:23:09;;;;;;;8.15;6.50;;;;;;;;;;5044672;28;20584;-53
2023/04/23 07:25:36;;;;;;;9.05;8.15;;;;;;;;;;5041164;28;20227;-53
2023/04/23 07:28:03;;;;;;;9.30;8.40;;;;;;;;;;5043766;28;20634;-54
2023/04/23 07:30:31;;;;;;;10.13;9.15;;;;;;;;;;5045432;28;20240;-53
2023/04/23 07:32:57;;;;;;;14.05;9.13;;;;;;;;;;5041220;28;20243;-54
2023/04/23 07:35:26;;;;;;;10.25;9.05;;;;;;;;;;5041961;28;20239;-53
2023/04/23 07:37:54;;;;;;;9.30;8.40;;;;;;;;;;5044808;28;20639;-51
2023/04/23 07:40:22;;;;;;;10.10;9.10;;;;;;;;;;5046020;28;20581;-51
2023/04/23 07:42:48;;;;;;;11.18;9.77;;;;;;;;;;5044487;28;20230;-53
2023/04/23 07:45:15;;;;;;;11.07;9.68;;;;;;;;;;5044564;28;20235;-56
2023/04/23 07:47:42;;;;;;;10.30;8.93;;;;;;;;;;5045340;28;20311;-52
2023/04/23 07:50:09;;;;;;;9.65;8.75;;;;;;;;;;5044634;28;20746;-53
2023/04/23 07:52:37;;;;;;;10.38;9.38;;;;;;;;;;5045508;28;20244;-51
2023/04/23 07:55:04;;;;;;;12.00;10.15;;;;;;;;;;5045109;28;20230;-53
2023/04/23 07:57:30;;;;;;;15.02;11.80;;;;;;;;;;5038039;28;20239;-53
2023/04/23 07:59:57;;;;;;;11.45;10.25;;;;;;;;;;5046771;28;20227;-56
2023/04/23 08:02:25;;;;;;;13.20;11.90;;;;;;;;;;5045600;28;20224;-51
2023/04/23 08:04:52;;;;;;;12.25;10.40;;;;;;;;;;5047112;28;20224;-53
2023/04/23 08:07:18;;;;;;;12.55;11.32;;;;;;;;;;5045052;28;20236;-53
2023/04/23 08:09:47;;;;;;;12.55;11.25;;;;;;;;;;5044281;28;20274;-52
2023/04/23 08:12:16;;;;;;;14.10;11.05;;;;;;;;;;5044502;28;20615;-52
2023/04/23 08:14:42;;;;;;;10.75;9.52;;;;;;;;;;5044559;28;20232;-54
2023/04/23 08:17:09;;;;;;;12.18;10.35;;;;;;;;;;5045753;28;20243;-51
2023/04/23 08:19:35;;;;;;;12.60;11.20;;;;;;;;;;5044313;28;20259;-54
2023/04/23 08:22:02;;;;;;;11.50;10.35;;;;;;;;;;5043831;28;20231;-53
2023/04/23 08:24:29;;;;;;;12.20;10.93;;;;;;;;;;5043327;28;20596;-52
2023/04/23 08:26:57;;;;;;;12.00;10.77;;;;;;;;;;5042857;28;20233;-54
2023/04/23 08:29:24;;;;;;;21.45;17.10;;;;;;;;;;5041581;28;20764;-53
2023/04/23 08:31:51;;;;;;;13.35;11.20;;;;;;;;;;5041242;28;20236;-52
2023/04/23 08:34:17;;;;;;;11.98;10.95;;;;;;;;;;5038805;28;20232;-52
2023/04/23 08:36:45;;;;;;;12.02;10.68;;;;;;;;;;5045696;28;20239;-51
2023/04/23 08:39:11;;;;;;;10.50;9.50;;;;;;;;;;5045894;28;20591;-52
2023/04/23 08:41:39;;;;;;;11.07;9.85;;;;;;;;;;5045688;28;20244;-53
2023/04/23 08:44:12;;;;;;;10.75;9.27;;;;;;;;;;5044260;28;20235;-53
2023/04/23 08:46:41;;;;;;;11.00;9.45;;;;;;;;;;5045846;28;20242;-53
2023/04/23 08:49:08;;;;;;;11.48;9.77;;;;;;;;;;5042111;28;20231;-53
2023/04/23 08:51:36;;;;;;;10.20;9.20;;;;;;;;;;5041902;28;20532;-52
2023/04/23 08:54:04;;;;;;;15.27;13.68;;;;;;;;;;5043230;28;20234;-51
2023/04/23 08:56:31;;;;;;;10.80;9.88;;;;;;;;;;5045908;28;20243;-52
2023/04/23 08:58:58;;;;;;;10.77;9.38;;;;;;;;;;5043145;28;20319;-52
2023/04/23 09:01:26;;;;;;;10.20;9.20;;;;;;;;;;5043692;28;20232;-50
2023/04/23 09:03:53;;;;;;;10.93;9.32;;;;;;;;;;5043968;28;20767;-52
2023/04/23 09:06:20;;;;;;;10.02;8.90;;;;;;;;;;5041663;28;20603;-51
2023/04/23 09:08:47;;;;;;;10.05;9.15;;;;;;;;;;5043201;28;20244;-52
2023/04/23 09:11:13;;;;;;;10.88;9.82;;;;;;;;;;5042526;28;20240;-52
2023/04/23 09:13:40;;;;;;;9.52;8.73;;;;;;;;;;5043317;28;20267;-51
2023/04/23 09:16:07;;;;;;;12.20;10.95;;;;;;;;;;5044136;28;20824;-52
2023/04/23 09:18:35;;;;;;;8.68;7.88;;;;;;;;;;5042862;28;20231;-53
2023/04/23 09:21:03;;;;;;;8.80;8.00;;;;;;;;;;5044777;28;20236;-51
2023/04/23 09:23:30;;;;;;;6.88;6.28;;;;;;;;;;5045014;28;20227;-51
2023/04/23 09:25:57;;;;;;;7.68;6.72;;;;;;;;;;5045047;28;20717;-52
2023/04/23 09:28:33;;;;;;;6.53;5.85;;;;;;;;;;5043157;28;20256;-51
2023/04/23 09:31:00;;;;;;;5.72;5.07;;;;;;;;;;5044184;28;20232;-51
2023/04/23 09:33:28;;;;;;;5.35;4.93;;;;;;;;;;5043831;28;20227;-51
2023/04/23 09:35:56;;;;;;;4.45;4.05;;;;;;;;;;5049475;28;20236;-54
2023/04/23 09:38:22;;;;;;;4.65;3.63;;;;;;;;;;5047646;28;20234;-57
2023/04/23 09:40:50;;;;;;;3.90;3.60;;;;;;;;;;5049385;28;20269;-52
2023/04/23 09:43:16;;;;;;;3.47;3.17;;;;;;;;;;5047591;28;20311;-55
2023/04/23 09:45:49;;;;;;;3.25;3.00;;;;;;;;;;5047859;28;20228;-52
2023/04/23 09:48:16;;;;;;;4.50;4.10;;;;;;;;;;5042629;28;20254;-52
2023/04/23 09:50:42;;;;;;;4.25;3.30;;;;;;;;;;5043086;28;20224;-52
2023/04/23 09:53:10;;;;;;;4.13;3.72;;;;;;;;;;5038737;28;20286;-51
2023/04/23 09:55:38;;;;;;;3.70;3.40;;;;;;;;;;5046159;28;20248;-52
2023/04/23 09:58:05;;;;;;;4.25;3.85;;;;;;;;;;5044353;28;20249;-51
2023/04/23 10:00:33;;;;;;;5.18;4.68;;;;;;;;;;5045800;28;20301;-52
2023/04/23 10:02:59;;;;;;;4.80;4.40;;;;;;;;;;5046142;28;20652;-51
2023/04/23 10:05:26;;;;;;;4.60;4.18;;;;;;;;;;5048658;28;20223;-52
2023/04/23 10:07:53;;;;;;;3.78;3.38;;;;;;;;;;5048872;28;20235;-51
2023/04/23 10:10:21;;;;;;;3.55;2.80;;;;;;;;;;5049582;28;20287;-51
2023/04/23 10:12:48;;;;;;;4.35;3.95;;;;;;;;;;5048247;28;20261;-51
2023/04/23 10:15:14;;;;;;;4.80;4.40;;;;;;;;;;5047184;28;20227;-50
2023/04/23 10:17:41;;;;;;;5.10;4.57;;;;;;;;;;5046115;28;20303;-52
2023/04/23 10:20:09;;;;;;;5.97;5.40;;;;;;;;;;5046442;28;20244;-51
2023/04/23 10:22:37;;;;;;;6.22;5.63;;;;;;;;;;5048163;28;20228;-52
2023/04/23 10:25:07;;;;;;;5.32;4.85;;;;;;;;;;5044901;28;20227;-51
2023/04/23 10:27:37;;;;;;;8.63;7.78;;;;;;;;;;5047831;28;20227;-52
2023/04/23 10:30:05;;;;;;;8.70;7.80;;;;;;;;;;5042253;28;20254;-50
2023/04/23 10:32:33;;;;;;;10.50;8.90;;;;;;;;;;5046337;28;20259;-53
2023/04/23 10:34:59;;;;;;;9.57;8.63;;;;;;;;;;5047358;28;20231;-52
2023/04/23 10:37:27;;;;;;;9.48;8.57;;;;;;;;;;5045763;28;20243;-51
2023/04/23 10:39:54;;;;;;;9.00;8.20;;;;;;;;;;5047077;28;20232;-51
2023/04/23 10:42:21;;;;;;;10.38;9.18;;;;;;;;;;5044694;28;20243;-53
2023/04/23 10:44:49;;;;;;;9.38;8.48;;;;;;;;;;5043897;28;20706;-53
2023/04/23 10:47:19;;;;;;;9.13;8.23;;;;;;;;;;5044702;28;20269;-51
2023/04/23 10:49:45;;;;;;;9.45;8.48;;;;;;;;;;5044391;28;20252;-52
2023/04/23 10:52:14;;;;;;;10.35;8.98;;;;;;;;;;5044125;28;20235;-51
2023/04/23 10:54:41;;;;;;;9.32;8.35;;;;;;;;;;5045684;28;20315;-52
2023/04/23 10:57:08;;;;;;;8.93;8.02;;;;;;;;;;5040926;28;20319;-52
2023/04/23 10:59:35;;;;;;;8.50;7.72;;;;;;;;;;5045142;28;20224;-52
2023/04/23 11:02:08;;;;;;;8.77;7.75;;;;;;;;;;5041482;28;20242;-51
2023/04/23 11:04:35;;;;;;;9.65;8.07;;;;;;;;;;5041294;28;20297;-51
2023/04/23 11:07:06;;;;;;;8.65;7.70;;;;;;;;;;5044991;28;20720;-52
2023/04/23 11:09:36;;;;;;;9.77;8.70;;;;;;;;;;5041488;28;20232;-52
2023/04/23 11:12:03;;;;;;;10.25;8.35;;;;;;;;;;5042633;28;20956;-51
2023/04/23 11:14:46;;;;;;;9.95;8.65;;;;;;;;;;5046684;28;20258;-54
2023/04/23 11:17:14;;;;;;;9.63;8.68;;;;;;;;;;5043760;28;20236;-52
2023/04/23 11:19:42;;;;;;;9.35;8.43;;;;;;;;;;5045405;28;20228;-50
2023/04/23 11:22:13;;;;;;;9.48;8.43;;;;;;;;;;5045797;28;20982;-50
2023/04/23 11:24:41;;;;;;;9.77;8.88;;;;;;;;;;5043814;28;20242;-51
2023/04/23 11:27:08;;;;;;;11.23;8.32;;;;;;;;;;5043532;28;20259;-53
2023/04/23 11:29:36;;;;;;;9.35;8.38;;;;;;;;;;5044660;28;20234;-50
2023/04/23 11:32:04;;;;;;;9.52;8.52;;;;;;;;;;5043399;28;20319;-51
2023/04/23 11:34:32;;;;;;;9.00;8.07;;;;;;;;;;5044746;28;20282;-50
2023/04/23 11:36:59;;;;;;;8.80;7.22;;;;;;;;;;5045784;28;20263;-52
2023/04/23 11:39:27;;;;;;;8.43;7.63;;;;;;;;;;5042900;28;20712;-51
2023/04/23 11:41:53;;;;;;;8.98;8.07;;;;;;;;;;5044234;28;20599;-51
2023/04/23 11:44:20;;;;;;;9.82;8.90;;;;;;;;;;5042068;28;20243;-50
2023/04/23 11:46:48;;;;;;;12.95;11.55;;;;;;;;;;5045314;28;20242;-52
2023/04/23 11:49:15;;;;;;;10.75;8.95;;;;;;;;;;5041645;28;20314;-51
2023/04/23 11:51:44;;;;;;;9.10;8.20;;;;;;;;;;5044510;28;20608;-51
2023/04/23 11:54:11;;;;;;;8.95;8.05;;;;;;;;;;5044932;28;20232;-51
2023/04/23 11:56:38;;;;;;;8.15;7.35;;;;;;;;;;5045771;28;20244;-52
2023/04/23 11:59:05;;;;;;;7.35;6.57;;;;;;;;;;5043735;28;20227;-51
2023/04/23 12:01:41;;;;;;;6.88;6.18;;;;;;;;;;5044782;28;20273;-52
2023/04/23 12:04:11;;;;;;;6.90;6.20;;;;;;;;;;5044686;28;20236;-51
2023/04/23 12:06:38;;;;;;;6.18;5.57;;;;;;;;;;5044733;28;20239;-55
2023/04/23 12:09:06;;;;;;;7.28;6.60;;;;;;;;;;5044671;28;20231;-51
2023/04/23 12:11:34;;;;;;;7.00;6.13;;;;;;;;;;5047261;28;20239;-51
2023/04/23 12:14:01;;;;;;;6.55;5.90;;;;;;;;;;5050420;28;20238;-51
2023/04/23 12:16:34;;;;;;;7.70;6.47;;;;;;;;;;5048260;28;20286;-55
2023/04/23 12:19:01;;;;;;;7.05;6.38;;;;;;;;;;5046755;28;20240;-51
2023/04/23 12:21:28;;;;;;;7.57;6.47;;;;;;;;;;5047264;28;20336;-50
2023/04/23 12:23:56;;;;;;;6.68;6.07;;;;;;;;;;5048737;28;20235;-53
2023/04/23 12:26:25;;;;;;;5.65;5.15;;;;;;;;;;5045189;28;20293;-57
2023/04/23 12:28:52;;;;;;;6.55;5.45;;;;;;;;;;5043566;28;20236;-52
2023/04/23 12:31:19;;;;;;;6.25;5.20;;;;;;;;;;5045145;28;20239;-51
2023/04/23 12:33:46;;;;;;;5.60;5.18;;;;;;;;;;5044130;28;20629;-52
2023/04/23 12:36:16;;;;;;;4.97;4.53;;;;;;;;;;5043112;28;20244;-51
2023/04/23 12:38:43;;;;;;;5.10;4.60;;;;;;;;;;5038364;28;20702;-51
2023/04/23 12:41:09;;;;;;;4.68;4.28;;;;;;;;;;5044444;28;20331;-52
2023/04/23 12:43:37;;;;;;;4.43;3.97;;;;;;;;;;5043345;28;20232;-51
2023/04/23 12:46:04;;;;;;;3.92;3.63;;;;;;;;;;5043902;28;20240;-51
2023/04/23 12:48:31;;;;;;;4.28;3.88;;;;;;;;;;5042919;28;20228;-51
2023/04/23 12:50:57;;;;;;;3.45;3.15;;;;;;;;;;5042900;28;20243;-51
2023/04/23 12:53:24;;;;;;;3.97;3.67;;;;;;;;;;5041473;28;20246;-52
2023/04/23 12:55:50;;;;;;;4.45;3.50;;;;;;;;;;5044390;28;20231;-52
2023/04/23 12:58:17;;;;;;;5.57;4.90;;;;;;;;;;5043561;28;20282;-51
2023/04/23 13:00:45;;;;;;;2.60;2.40;;;;;;;;;;5040871;28;20251;-51
2023/04/23 13:03:14;;;;;;;2.40;2.22;;;;;;;;;;5042391;28;20239;-52
2023/04/23 13:05:40;;;;;;;4.07;2.72;;;;;;;;;;5043597;28;20767;-53
2023/04/23 13:08:07;;;;;;;2.10;2.00;;;;;;;;;;5042123;28;20775;-53
2023/04/23 13:10:33;;;;;;;3.03;2.47;;;;;;;;;;5042831;28;20718;-52
2023/04/23 13:13:00;;;;;;;3.83;2.97;;;;;;;;;;5044032;28;20228;-52
2023/04/23 13:15:26;;;;;;;3.47;2.33;;;;;;;;;;5042249;28;20243;-51
2023/04/23 13:17:54;;;;;;;2.67;2.40;;;;;;;;;;5039661;28;20257;-53
2023/04/23 13:20:21;;;;;;;3.40;3.10;;;;;;;;;;5042359;28;20759;-51
2023/04/23 13:22:47;;;;;;;3.47;2.78;;;;;;;;;;5040712;28;20275;-51
2023/04/23 13:25:14;;;;;;;2.17;2.05;;;;;;;;;;5044298;28;20231;-52
2023/04/23 13:27:41;;;;;;;4.18;2.42;;;;;;;;;;5046223;28;20252;-52
2023/04/23 13:30:08;;;;;;;2.08;1.92;;;;;;;;;;5043377;28;20235;-52
2023/04/23 13:32:35;;;;;;;2.15;1.98;;;;;;;;;;5042737;28;20236;-51
2023/04/23 13:35:03;;;;;;;2.72;2.53;;;;;;;;;;5043431;28;20598;-53
2023/04/23 13:37:31;;;;;;;2.67;2.47;;;;;;;;;;5041409;28;20232;-51
2023/04/23 13:39:57;;;;;;;1.90;1.80;;;;;;;;;;5038729;28;20234;-53
2023/04/23 13:42:24;;;;;;;2.75;2.20;;;;;;;;;;5042465;28;20235;-51
2023/04/23 13:44:51;;;;;;;2.35;2.15;;;;;;;;;;5041345;28;20293;-51
2023/04/23 13:47:18;;;;;;;3.45;2.15;;;;;;;;;;5043497;28;20237;-51
2023/04/23 13:49:45;;;;;;;4.32;2.17;;;;;;;;;;5038538;28;20911;-50
2023/04/23 13:52:12;;;;;;;2.63;2.42;;;;;;;;;;5042592;28;20897;-53
2023/04/23 13:54:39;;;;;;;2.38;1.95;;;;;;;;;;5041541;28;20324;-52
2023/04/23 13:57:06;;;;;;;2.42;2.17;;;;;;;;;;5039210;28;20243;-50
2023/04/23 13:59:32;;;;;;;2.85;2.08;;;;;;;;;;5040827;28;20232;-51
2023/04/23 14:01:59;;;;;;;2.00;1.90;;;;;;;;;;5041850;28;20234;-51
2023/04/23 14:04:25;;;;;;;2.22;2.13;;;;;;;;;;5043170;28;20328;-51
2023/04/23 14:06:52;;;;;;;2.50;2.17;;;;;;;;;;5043542;28;20232;-51
2023/04/23 14:09:21;;;;;;;7.72;2.13;;;;;;;;;;5043165;28;20294;-53
2023/04/23 14:11:47;;;;;;;2.10;1.90;;;;;;;;;;5043272;28;20653;-51
2023/04/23 14:14:15;;;;;;;2.25;1.98;;;;;;;;;;5039480;28;20721;-52
2023/04/23 14:16:41;;;;;;;1.83;1.50;;;;;;;;;;5043923;28;20231;-50
2023/04/23 14:19:08;;;;;;;2.40;1.90;;;;;;;;;;5044338;28;20239;-51
2023/04/23 14:21:35;;;;;;;1.50;1.40;;;;;;;;;;5044877;28;20256;-50
2023/04/23 14:24:02;;;;;;;1.83;1.60;;;;;;;;;;5045641;28;20590;-53
2023/04/23 14:26:33;;;;;;;1.80;1.42;;;;;;;;;;5047946;28;20258;-53
2023/04/23 14:29:04;;;;;;;1.38;1.27;;;;;;;;;;5055781;28;20895;-53
2023/04/23 14:31:30;;;;;;;1.60;1.48;;;;;;;;;;5058218;28;20344;-51
2023/04/23 14:33:58;;;;;;;3.45;1.75;;;;;;;;;;5059356;28;20238;-53
2023/04/23 14:36:25;;;;;;;5.53;2.40;;;;;;;;;;5060247;28;20228;-50
2023/04/23 14:38:51;;;;;;;1.92;1.83;;;;;;;;;;5054865;28;20235;-51